Wyatt, West Virginia
Current Conditions -  °F | °C
As of 11:34 PM on Sunday 25 Jan 2015 (Local Time) from KCKB Reporting Station
Light Rain Light Rain  
Wind Chill: 35°   Ceiling: 200
Heat Index: 35°   Visibility: 1.2mi
Dew Point: 35°   Wind: 3mph
Humidity: 100%   Direction: 350°N
Pressure: 29.73"   Gusts: NA
Location:  39.43°N, 80.35°W
Report Text: KCKB 260434Z AUTO 35003KT 1 1/4SM -RA BR BKN002 OVC040 02/02 A2973 RMK AO2 RAB22 P0000 T00170017
Loading
Personal Weather Stations






























Interactive Weather Map New forecast layout! Learn more

10-Day Weather Forecast

Advertisements
Track Severe Weather on mobile